sensor_id;sensor_type;location;lat;lon;timestamp;temperature;humidity
64654;DHT22;51065;48.884;12.598;2023-10-08T00:01:08;13.10;99.90
64654;DHT22;51065;48.884;12.598;2023-10-08T00:03:37;13.10;99.90
64654;DHT22;51065;48.884;12.598;2023-10-08T00:06:04;13.10;99.90
64654;DHT22;51065;48.884;12.598;2023-10-08T00:08:37;13.10;99.90
64654;DHT22;51065;48.884;12.598;2023-10-08T00:11:03;13.00;99.90
64654;DHT22;51065;48.884;12.598;2023-10-08T00:13:33;13.00;99.90
64654;DHT22;51065;48.884;12.598;2023-10-08T00:16:06;13.10;99.90
64654;DHT22;51065;48.884;12.598;2023-10-08T00:18:35;13.10;99.90
64654;DHT22;51065;48.884;12.598;2023-10-08T00:21:01;13.10;99.90
64654;DHT22;51065;48.884;12.598;2023-10-08T00:23:35;13.00;99.90
64654;DHT22;51065;48.884;12.598;2023-10-08T00:26:04;13.00;99.90
64654;DHT22;51065;48.884;12.598;2023-10-08T00:28:30;13.00;99.90
64654;DHT22;51065;48.884;12.598;2023-10-08T00:31:03;13.00;99.90
64654;DHT22;51065;48.884;12.598;2023-10-08T00:33:38;12.90;99.90
64654;DHT22;51065;48.884;12.598;2023-10-08T00:36:05;12.90;99.90
64654;DHT22;51065;48.884;12.598;2023-10-08T00:38:43;12.90;99.90
64654;DHT22;51065;48.884;12.598;2023-10-08T00:41:15;12.90;99.90
64654;DHT22;51065;48.884;12.598;2023-10-08T00:43:41;12.90;99.90
64654;DHT22;51065;48.884;12.598;2023-10-08T00:46:08;12.90;99.90
64654;DHT22;51065;48.884;12.598;2023-10-08T00:48:45;12.90;99.90
64654;DHT22;51065;48.884;12.598;2023-10-08T00:51:11;12.80;99.90
64654;DHT22;51065;48.884;12.598;2023-10-08T00:53:58;12.80;99.90
64654;DHT22;51065;48.884;12.598;2023-10-08T00:56:32;12.80;99.90
64654;DHT22;51065;48.884;12.598;2023-10-08T00:59:16;12.80;99.90
64654;DHT22;51065;48.884;12.598;2023-10-08T01:01:47;12.80;99.90
64654;DHT22;51065;48.884;12.598;2023-10-08T01:04:31;12.80;99.90
64654;DHT22;51065;48.884;12.598;2023-10-08T01:07:02;12.70;99.90
64654;DHT22;51065;48.884;12.598;2023-10-08T01:09:37;12.70;99.90
64654;DHT22;51065;48.884;12.598;2023-10-08T01:12:15;12.60;99.90
64654;DHT22;51065;48.884;12.598;2023-10-08T01:14:42;12.60;99.90
64654;DHT22;51065;48.884;12.598;2023-10-08T01:17:11;12.60;99.90
64654;DHT22;51065;48.884;12.598;2023-10-08T01:19:44;12.60;99.90
64654;DHT22;51065;48.884;12.598;2023-10-08T01:22:13;12.60;99.90
64654;DHT22;51065;48.884;12.598;2023-10-08T01:24:50;12.60;99.90
64654;DHT22;51065;48.884;12.598;2023-10-08T01:27:19;12.60;99.90
64654;DHT22;51065;48.884;12.598;2023-10-08T01:29:51;12.60;99.90
64654;DHT22;51065;48.884;12.598;2023-10-08T01:32:21;12.50;99.90
64654;DHT22;51065;48.884;12.598;2023-10-08T01:34:48;12.50;99.90
64654;DHT22;51065;48.884;12.598;2023-10-08T01:37:17;12.50;99.90
64654;DHT22;51065;48.884;12.598;2023-10-08T01:39:47;12.40;99.90
64654;DHT22;51065;48.884;12.598;2023-10-08T01:42:16;12.40;99.90
64654;DHT22;51065;48.884;12.598;2023-10-08T01:44:46;12.40;99.90
64654;DHT22;51065;48.884;12.598;2023-10-08T01:47:13;12.50;99.90
64654;DHT22;51065;48.884;12.598;2023-10-08T01:49:39;12.40;99.90
64654;DHT22;51065;48.884;12.598;2023-10-08T01:52:08;12.40;99.90
64654;DHT22;51065;48.884;12.598;2023-10-08T01:54:39;12.30;99.90
64654;DHT22;51065;48.884;12.598;2023-10-08T01:57:08;12.30;99.90
64654;DHT22;51065;48.884;12.598;2023-10-08T01:59:35;12.30;99.90
64654;DHT22;51065;48.884;12.598;2023-10-08T02:02:03;12.30;99.90
64654;DHT22;51065;48.884;12.598;2023-10-08T02:04:33;12.40;99.90
64654;DHT22;51065;48.884;12.598;2023-10-08T02:07:03;12.40;99.90
64654;DHT22;51065;48.884;12.598;2023-10-08T02:09:30;12.50;99.90
64654;DHT22;51065;48.884;12.598;2023-10-08T02:11:55;12.50;99.90
64654;DHT22;51065;48.884;12.598;2023-10-08T02:14:22;12.40;99.90
64654;DHT22;51065;48.884;12.598;2023-10-08T02:16:49;12.40;99.90
64654;DHT22;51065;48.884;12.598;2023-10-08T02:19:14;12.40;99.90
64654;DHT22;51065;48.884;12.598;2023-10-08T02:21:44;12.40;99.90
64654;DHT22;51065;48.884;12.598;2023-10-08T02:24:13;12.40;99.90
64654;DHT22;51065;48.884;12.598;2023-10-08T02:26:39;12.30;99.90
64654;DHT22;51065;48.884;12.598;2023-10-08T02:29:05;12.30;99.90
64654;DHT22;51065;48.884;12.598;2023-10-08T02:31:38;12.30;99.90
64654;DHT22;51065;48.884;12.598;2023-10-08T02:34:05;12.20;99.90
64654;DHT22;51065;48.884;12.598;2023-10-08T02:36:34;12.20;99.90
64654;DHT22;51065;48.884;12.598;2023-10-08T02:39:02;12.10;99.90
64654;DHT22;51065;48.884;12.598;2023-10-08T02:41:32;12.10;99.90
64654;DHT22;51065;48.884;12.598;2023-10-08T02:43:57;12.10;99.90
64654;DHT22;51065;48.884;12.598;2023-10-08T02:46:27;12.10;99.90
64654;DHT22;51065;48.884;12.598;2023-10-08T02:48:55;12.00;99.90
64654;DHT22;51065;48.884;12.598;2023-10-08T02:51:21;12.00;99.90
64654;DHT22;51065;48.884;12.598;2023-10-08T02:53:47;12.00;99.90
64654;DHT22;51065;48.884;12.598;2023-10-08T02:56:15;12.00;99.90
64654;DHT22;51065;48.884;12.598;2023-10-08T02:58:40;12.00;99.90
64654;DHT22;51065;48.884;12.598;2023-10-08T03:01:07;12.00;99.90
64654;DHT22;51065;48.884;12.598;2023-10-08T03:03:40;12.00;99.90
64654;DHT22;51065;48.884;12.598;2023-10-08T03:06:07;12.00;99.90
64654;DHT22;51065;48.884;12.598;2023-10-08T03:08:40;11.90;99.90
64654;DHT22;51065;48.884;12.598;2023-10-08T03:11:09;11.90;99.90
64654;DHT22;51065;48.884;12.598;2023-10-08T03:13:46;11.90;99.90
64654;DHT22;51065;48.884;12.598;2023-10-08T03:16:17;12.00;99.90
64654;DHT22;51065;48.884;12.598;2023-10-08T03:18:47;12.00;99.90
64654;DHT22;51065;48.884;12.598;2023-10-08T03:21:15;12.00;99.90
64654;DHT22;51065;48.884;12.598;2023-10-08T03:23:47;12.00;99.90
64654;DHT22;51065;48.884;12.598;2023-10-08T03:26:14;12.00;99.90
64654;DHT22;51065;48.884;12.598;2023-10-08T03:29:04;11.90;99.90
64654;DHT22;51065;48.884;12.598;2023-10-08T03:31:41;11.90;99.90
64654;DHT22;51065;48.884;12.598;2023-10-08T03:34:17;11.90;99.90
64654;DHT22;51065;48.884;12.598;2023-10-08T03:36:45;11.90;99.90
64654;DHT22;51065;48.884;12.598;2023-10-08T03:39:11;11.90;99.90
64654;DHT22;51065;48.884;12.598;2023-10-08T03:41:40;11.90;99.90
64654;DHT22;51065;48.884;12.598;2023-10-08T03:44:07;11.80;99.90
64654;DHT22;51065;48.884;12.598;2023-10-08T03:46:40;11.90;99.90
64654;DHT22;51065;48.884;12.598;2023-10-08T03:49:11;11.80;99.90
64654;DHT22;51065;48.884;12.598;2023-10-08T03:51:51;11.80;99.90
64654;DHT22;51065;48.884;12.598;2023-10-08T03:54:21;11.80;99.90
64654;DHT22;51065;48.884;12.598;2023-10-08T03:57:09;11.70;99.90
64654;DHT22;51065;48.884;12.598;2023-10-08T03:59:39;11.70;99.90
64654;DHT22;51065;48.884;12.598;2023-10-08T04:02:06;11.70;99.90
64654;DHT22;51065;48.884;12.598;2023-10-08T04:04:51;11.70;99.90
64654;DHT22;51065;48.884;12.598;2023-10-08T04:07:23;11.70;99.90
64654;DHT22;51065;48.884;12.598;2023-10-08T04:09:59;11.70;99.90
64654;DHT22;51065;48.884;12.598;2023-10-08T04:12:31;11.60;99.90
64654;DHT22;51065;48.884;12.598;2023-10-08T04:15:01;11.60;99.90
64654;DHT22;51065;48.884;12.598;2023-10-08T04:17:26;11.60;99.90
64654;DHT22;51065;48.884;12.598;2023-10-08T04:19:52;11.50;99.90
64654;DHT22;51065;48.884;12.598;2023-10-08T04:22:17;11.40;99.90
64654;DHT22;51065;48.884;12.598;2023-10-08T04:24:44;11.40;99.90
64654;DHT22;51065;48.884;12.598;2023-10-08T04:27:10;11.30;99.90
64654;DHT22;51065;48.884;12.598;2023-10-08T04:29:36;11.20;99.90
64654;DHT22;51065;48.884;12.598;2023-10-08T04:32:07;11.10;99.90
64654;DHT22;51065;48.884;12.598;2023-10-08T04:34:34;11.00;99.90
64654;DHT22;51065;48.884;12.598;2023-10-08T04:36:59;11.00;99.90
64654;DHT22;51065;48.884;12.598;2023-10-08T04:39:30;10.90;99.90
64654;DHT22;51065;48.884;12.598;2023-10-08T04:41:59;10.80;99.90
64654;DHT22;51065;48.884;12.598;2023-10-08T04:44:32;10.70;99.90
64654;DHT22;51065;48.884;12.598;2023-10-08T04:46:58;10.60;99.90
64654;DHT22;51065;48.884;12.598;2023-10-08T04:49:30;10.50;99.90
64654;DHT22;51065;48.884;12.598;2023-10-08T04:52:01;10.50;99.90
64654;DHT22;51065;48.884;12.598;2023-10-08T04:54:34;10.60;99.90
64654;DHT22;51065;48.884;12.598;2023-10-08T04:57:06;10.60;99.90
64654;DHT22;51065;48.884;12.598;2023-10-08T04:59:32;10.70;99.90
64654;DHT22;51065;48.884;12.598;2023-10-08T05:02:03;10.80;99.90
64654;DHT22;51065;48.884;12.598;2023-10-08T05:04:37;10.90;99.90
64654;DHT22;51065;48.884;12.598;2023-10-08T05:07:12;11.00;99.90
64654;DHT22;51065;48.884;12.598;2023-10-08T05:09:50;11.10;99.90
64654;DHT22;51065;48.884;12.598;2023-10-08T05:12:31;11.20;99.90
64654;DHT22;51065;48.884;12.598;2023-10-08T05:15:15;11.30;99.90
64654;DHT22;51065;48.884;12.598;2023-10-08T05:17:41;11.40;99.90
64654;DHT22;51065;48.884;12.598;2023-10-08T05:20:22;11.40;99.90
64654;DHT22;51065;48.884;12.598;2023-10-08T05:23:11;11.50;99.90
64654;DHT22;51065;48.884;12.598;2023-10-08T05:25:58;11.50;99.90
64654;DHT22;51065;48.884;12.598;2023-10-08T05:28:36;11.50;99.90
64654;DHT22;51065;48.884;12.598;2023-10-08T05:31:13;11.50;99.90
64654;DHT22;51065;48.884;12.598;2023-10-08T05:33:42;11.70;99.90
64654;DHT22;51065;48.884;12.598;2023-10-08T05:36:26;11.70;99.90
64654;DHT22;51065;48.884;12.598;2023-10-08T05:39:16;11.80;99.90
64654;DHT22;51065;48.884;12.598;2023-10-08T05:41:55;11.90;99.90
64654;DHT22;51065;48.884;12.598;2023-10-08T05:44:42;12.00;99.90
64654;DHT22;51065;48.884;12.598;2023-10-08T05:47:14;12.10;99.90
64654;DHT22;51065;48.884;12.598;2023-10-08T05:50:12;12.20;99.90
64654;DHT22;51065;48.884;12.598;2023-10-08T05:52:42;12.40;99.90
64654;DHT22;51065;48.884;12.598;2023-10-08T05:55:23;12.40;99.90
64654;DHT22;51065;48.884;12.598;2023-10-08T05:58:06;12.50;99.90
64654;DHT22;51065;48.884;12.598;2023-10-08T06:00:46;12.50;99.90
64654;DHT22;51065;48.884;12.598;2023-10-08T06:03:30;12.50;99.90
64654;DHT22;51065;48.884;12.598;2023-10-08T06:06:03;12.50;99.90
64654;DHT22;51065;48.884;12.598;2023-10-08T06:08:49;12.50;99.90
64654;DHT22;51065;48.884;12.598;2023-10-08T06:11:34;12.50;99.90
64654;DHT22;51065;48.884;12.598;2023-10-08T06:14:09;12.60;99.90
64654;DHT22;51065;48.884;12.598;2023-10-08T06:16:54;12.60;99.90
64654;DHT22;51065;48.884;12.598;2023-10-08T06:19:39;12.70;99.90
64654;DHT22;51065;48.884;12.598;2023-10-08T06:22:04;12.80;99.90
64654;DHT22;51065;48.884;12.598;2023-10-08T06:24:30;12.90;99.90
64654;DHT22;51065;48.884;12.598;2023-10-08T06:26:58;13.10;99.90
64654;DHT22;51065;48.884;12.598;2023-10-08T06:29:30;13.20;99.90
64654;DHT22;51065;48.884;12.598;2023-10-08T06:31:57;13.30;99.90
64654;DHT22;51065;48.884;12.598;2023-10-08T06:34:27;13.50;99.90
64654;DHT22;51065;48.884;12.598;2023-10-08T06:36:54;13.60;99.90
64654;DHT22;51065;48.884;12.598;2023-10-08T06:39:21;13.70;99.90
64654;DHT22;51065;48.884;12.598;2023-10-08T06:41:52;13.80;99.90
64654;DHT22;51065;48.884;12.598;2023-10-08T06:44:19;13.90;99.90
64654;DHT22;51065;48.884;12.598;2023-10-08T06:46:44;14.00;99.90
64654;DHT22;51065;48.884;12.598;2023-10-08T06:49:11;14.10;99.90
64654;DHT22;51065;48.884;12.598;2023-10-08T06:51:40;14.20;99.90
64654;DHT22;51065;48.884;12.598;2023-10-08T06:54:08;14.30;99.90
64654;DHT22;51065;48.884;12.598;2023-10-08T06:56:36;14.50;99.90
64654;DHT22;51065;48.884;12.598;2023-10-08T06:59:02;14.60;99.90
64654;DHT22;51065;48.884;12.598;2023-10-08T07:01:29;14.70;99.90
64654;DHT22;51065;48.884;12.598;2023-10-08T07:04:13;14.80;99.90
64654;DHT22;51065;48.884;12.598;2023-10-08T07:06:42;15.00;99.90
64654;DHT22;51065;48.884;12.598;2023-10-08T07:09:12;15.00;99.90
64654;DHT22;51065;48.884;12.598;2023-10-08T07:11:55;15.00;99.90
64654;DHT22;51065;48.884;12.598;2023-10-08T07:14:22;15.00;99.90
64654;DHT22;51065;48.884;12.598;2023-10-08T07:16:53;15.00;99.90
64654;DHT22;51065;48.884;12.598;2023-10-08T07:19:20;15.00;99.90
64654;DHT22;51065;48.884;12.598;2023-10-08T07:21:49;14.90;99.90
64654;DHT22;51065;48.884;12.598;2023-10-08T07:24:19;14.90;99.90
64654;DHT22;51065;48.884;12.598;2023-10-08T07:26:48;14.80;99.90
64654;DHT22;51065;48.884;12.598;2023-10-08T07:29:16;14.80;99.90
64654;DHT22;51065;48.884;12.598;2023-10-08T07:31:47;14.70;99.90
64654;DHT22;51065;48.884;12.598;2023-10-08T07:34:17;14.70;99.90
64654;DHT22;51065;48.884;12.598;2023-10-08T07:36:45;14.60;99.90
64654;DHT22;51065;48.884;12.598;2023-10-08T07:39:13;14.60;99.90
64654;DHT22;51065;48.884;12.598;2023-10-08T07:41:58;14.50;99.90
64654;DHT22;51065;48.884;12.598;2023-10-08T07:44:25;14.40;99.90
64654;DHT22;51065;48.884;12.598;2023-10-08T07:46:54;14.40;99.90
64654;DHT22;51065;48.884;12.598;2023-10-08T07:49:20;14.40;99.90
64654;DHT22;51065;48.884;12.598;2023-10-08T07:51:48;14.50;99.90
64654;DHT22;51065;48.884;12.598;2023-10-08T07:54:27;14.50;99.90
64654;DHT22;51065;48.884;12.598;2023-10-08T07:57:03;14.50;99.90
64654;DHT22;51065;48.884;12.598;2023-10-08T07:59:36;14.50;99.90
64654;DHT22;51065;48.884;12.598;2023-10-08T08:02:13;14.50;99.90
64654;DHT22;51065;48.884;12.598;2023-10-08T08:04:43;14.40;99.90
64654;DHT22;51065;48.884;12.598;2023-10-08T08:07:11;14.60;99.90
64654;DHT22;51065;48.884;12.598;2023-10-08T08:09:45;14.70;99.90
64654;DHT22;51065;48.884;12.598;2023-10-08T08:12:20;14.80;99.90
64654;DHT22;51065;48.884;12.598;2023-10-08T08:14:47;15.00;99.90
64654;DHT22;51065;48.884;12.598;2023-10-08T08:17:20;15.10;99.90
64654;DHT22;51065;48.884;12.598;2023-10-08T08:19:48;15.30;99.90
64654;DHT22;51065;48.884;12.598;2023-10-08T08:22:17;15.40;99.90
64654;DHT22;51065;48.884;12.598;2023-10-08T08:24:56;15.50;99.90
64654;DHT22;51065;48.884;12.598;2023-10-08T08:27:30;15.50;99.90
64654;DHT22;51065;48.884;12.598;2023-10-08T08:30:00;15.50;99.90
64654;DHT22;51065;48.884;12.598;2023-10-08T08:32:39;15.50;99.90
64654;DHT22;51065;48.884;12.598;2023-10-08T08:35:09;15.50;99.90
64654;DHT22;51065;48.884;12.598;2023-10-08T08:37:35;15.30;99.90
64654;DHT22;51065;48.884;12.598;2023-10-08T08:40:08;15.20;99.90
64654;DHT22;51065;48.884;12.598;2023-10-08T08:42:48;15.20;99.90
64654;DHT22;51065;48.884;12.598;2023-10-08T08:45:24;15.20;99.90
64654;DHT22;51065;48.884;12.598;2023-10-08T08:47:50;15.20;99.90
64654;DHT22;51065;48.884;12.598;2023-10-08T08:50:17;15.20;99.90
64654;DHT22;51065;48.884;12.598;2023-10-08T08:52:44;15.20;99.90
64654;DHT22;51065;48.884;12.598;2023-10-08T08:55:13;15.30;99.90
64654;DHT22;51065;48.884;12.598;2023-10-08T08:57:42;15.30;99.90
64654;DHT22;51065;48.884;12.598;2023-10-08T09:00:11;15.30;99.90
64654;DHT22;51065;48.884;12.598;2023-10-08T09:02:44;15.40;99.90
64654;DHT22;51065;48.884;12.598;2023-10-08T09:05:10;15.50;99.90
64654;DHT22;51065;48.884;12.598;2023-10-08T09:07:53;15.50;99.90
64654;DHT22;51065;48.884;12.598;2023-10-08T09:10:20;15.60;99.90
64654;DHT22;51065;48.884;12.598;2023-10-08T09:12:51;15.70;99.90
64654;DHT22;51065;48.884;12.598;2023-10-08T09:15:17;15.90;99.90
64654;DHT22;51065;48.884;12.598;2023-10-08T09:17:44;16.10;99.90
64654;DHT22;51065;48.884;12.598;2023-10-08T09:20:09;16.20;99.90
64654;DHT22;51065;48.884;12.598;2023-10-08T09:22:37;16.40;99.90
64654;DHT22;51065;48.884;12.598;2023-10-08T09:25:03;16.50;99.90
64654;DHT22;51065;48.884;12.598;2023-10-08T09:27:33;16.60;99.90
64654;DHT22;51065;48.884;12.598;2023-10-08T09:29:58;16.70;99.90
64654;DHT22;51065;48.884;12.598;2023-10-08T09:32:33;16.60;99.90
64654;DHT22;51065;48.884;12.598;2023-10-08T09:34:59;16.50;99.90
64654;DHT22;51065;48.884;12.598;2023-10-08T09:37:25;16.50;99.90
64654;DHT22;51065;48.884;12.598;2023-10-08T09:39:52;16.50;99.90
64654;DHT22;51065;48.884;12.598;2023-10-08T09:42:19;16.60;99.90
64654;DHT22;51065;48.884;12.598;2023-10-08T09:44:47;16.60;99.90
64654;DHT22;51065;48.884;12.598;2023-10-08T09:47:19;16.60;99.90
64654;DHT22;51065;48.884;12.598;2023-10-08T09:50:02;16.40;99.90
64654;DHT22;51065;48.884;12.598;2023-10-08T09:52:59;16.40;99.90
64654;DHT22;51065;48.884;12.598;2023-10-08T09:55:26;16.40;99.90
64654;DHT22;51065;48.884;12.598;2023-10-08T09:57:52;16.50;99.90
64654;DHT22;51065;48.884;12.598;2023-10-08T10:00:21;16.40;99.90
64654;DHT22;51065;48.884;12.598;2023-10-08T10:02:59;16.50;99.90
64654;DHT22;51065;48.884;12.598;2023-10-08T10:05:32;16.60;99.90
64654;DHT22;51065;48.884;12.598;2023-10-08T10:08:02;16.70;99.90
64654;DHT22;51065;48.884;12.598;2023-10-08T10:10:32;16.90;99.90
64654;DHT22;51065;48.884;12.598;2023-10-08T10:13:04;17.10;99.90
64654;DHT22;51065;48.884;12.598;2023-10-08T10:15:32;17.30;99.90
64654;DHT22;51065;48.884;12.598;2023-10-08T10:18:11;17.30;99.90
64654;DHT22;51065;48.884;12.598;2023-10-08T10:20:43;17.40;99.90
64654;DHT22;51065;48.884;12.598;2023-10-08T10:23:43;17.50;99.90
64654;DHT22;51065;48.884;12.598;2023-10-08T10:26:30;17.60;99.90
64654;DHT22;51065;48.884;12.598;2023-10-08T10:31:44;17.80;99.90
64654;DHT22;51065;48.884;12.598;2023-10-08T10:34:37;17.70;99.90
64654;DHT22;51065;48.884;12.598;2023-10-08T10:37:01;17.70;99.90
64654;DHT22;51065;48.884;12.598;2023-10-08T10:39:51;17.80;99.90
64654;DHT22;51065;48.884;12.598;2023-10-08T10:42:19;17.90;99.90
64654;DHT22;51065;48.884;12.598;2023-10-08T10:44:48;18.00;99.90
64654;DHT22;51065;48.884;12.598;2023-10-08T10:47:19;18.20;99.90
64654;DHT22;51065;48.884;12.598;2023-10-08T10:49:48;18.40;82.10
64654;DHT22;51065;48.884;12.598;2023-10-08T10:52:33;18.60;87.60
64654;DHT22;51065;48.884;12.598;2023-10-08T10:55:10;18.70;52.80
64654;DHT22;51065;48.884;12.598;2023-10-08T10:57:40;18.90;99.90
64654;DHT22;51065;48.884;12.598;2023-10-08T11:00:07;19.00;9.40
64654;DHT22;51065;48.884;12.598;2023-10-08T11:02:56;19.20;1.00
64654;DHT22;51065;48.884;12.598;2023-10-08T11:05:26;19.60;1.00
64654;DHT22;51065;48.884;12.598;2023-10-08T11:07:55;19.90;1.00
64654;DHT22;51065;48.884;12.598;2023-10-08T11:10:31;20.40;1.00
64654;DHT22;51065;48.884;12.598;2023-10-08T11:12:58;20.90;99.90
64654;DHT22;51065;48.884;12.598;2023-10-08T11:15:27;20.50;99.90
64654;DHT22;51065;48.884;12.598;2023-10-08T11:18:07;20.40;99.90
64654;DHT22;51065;48.884;12.598;2023-10-08T11:20:34;20.10;1.00
64654;DHT22;51065;48.884;12.598;2023-10-08T11:23:05;19.90;1.00
64654;DHT22;51065;48.884;12.598;2023-10-08T11:25:53;20.50;1.00
64654;DHT22;51065;48.884;12.598;2023-10-08T11:28:19;21.40;99.90
64654;DHT22;51065;48.884;12.598;2023-10-08T11:30:45;21.70;99.90
64654;DHT22;51065;48.884;12.598;2023-10-08T11:33:12;21.60;99.90
64654;DHT22;51065;48.884;12.598;2023-10-08T11:36:01;21.20;99.90
64654;DHT22;51065;48.884;12.598;2023-10-08T11:38:28;20.90;99.90
64654;DHT22;51065;48.884;12.598;2023-10-08T11:41:10;21.10;99.90
64654;DHT22;51065;48.884;12.598;2023-10-08T11:43:39;21.50;99.90
64654;DHT22;51065;48.884;12.598;2023-10-08T11:46:05;22.00;62.90
64654;DHT22;51065;48.884;12.598;2023-10-08T11:48:30;22.60;1.00
64654;DHT22;51065;48.884;12.598;2023-10-08T11:51:01;22.30;1.00
64654;DHT22;51065;48.884;12.598;2023-10-08T11:53:30;21.70;1.00
64654;DHT22;51065;48.884;12.598;2023-10-08T11:55:57;21.10;99.90
64654;DHT22;51065;48.884;12.598;2023-10-08T11:58:23;20.40;99.90
64654;DHT22;51065;48.884;12.598;2023-10-08T12:01:02;20.10;1.00
64654;DHT22;51065;48.884;12.598;2023-10-08T12:03:29;20.30;1.00
64654;DHT22;51065;48.884;12.598;2023-10-08T12:05:55;21.10;99.90
64654;DHT22;51065;48.884;12.598;2023-10-08T12:08:27;21.30;99.90
64654;DHT22;51065;48.884;12.598;2023-10-08T12:10:53;20.80;99.90
64654;DHT22;51065;48.884;12.598;2023-10-08T12:13:20;20.50;1.00
64654;DHT22;51065;48.884;12.598;2023-10-08T12:15:54;20.50;1.00
64654;DHT22;51065;48.884;12.598;2023-10-08T12:18:42;20.40;1.00
64654;DHT22;51065;48.884;12.598;2023-10-08T12:21:09;20.50;1.00
64654;DHT22;51065;48.884;12.598;2023-10-08T12:23:41;20.50;1.00
64654;DHT22;51065;48.884;12.598;2023-10-08T12:26:09;20.20;1.00
64654;DHT22;51065;48.884;12.598;2023-10-08T12:28:38;20.00;1.00
64654;DHT22;51065;48.884;12.598;2023-10-08T12:31:07;20.00;1.00
64654;DHT22;51065;48.884;12.598;2023-10-08T12:33:38;20.00;1.00
64654;DHT22;51065;48.884;12.598;2023-10-08T12:36:05;20.30;1.00
64654;DHT22;51065;48.884;12.598;2023-10-08T12:38:36;20.50;1.00
64654;DHT22;51065;48.884;12.598;2023-10-08T12:41:02;20.30;1.00
64654;DHT22;51065;48.884;12.598;2023-10-08T12:43:37;20.50;1.00
64654;DHT22;51065;48.884;12.598;2023-10-08T12:46:04;20.50;1.00
64654;DHT22;51065;48.884;12.598;2023-10-08T12:48:30;20.40;1.00
64654;DHT22;51065;48.884;12.598;2023-10-08T12:50:56;20.30;1.00
64654;DHT22;51065;48.884;12.598;2023-10-08T12:53:27;20.40;1.00
64654;DHT22;51065;48.884;12.598;2023-10-08T12:56:02;20.20;1.00
64654;DHT22;51065;48.884;12.598;2023-10-08T12:58:35;20.10;1.00
64654;DHT22;51065;48.884;12.598;2023-10-08T13:01:07;20.10;1.00
64654;DHT22;51065;48.884;12.598;2023-10-08T13:03:38;19.90;1.00
64654;DHT22;51065;48.884;12.598;2023-10-08T13:06:10;19.90;1.00
64654;DHT22;51065;48.884;12.598;2023-10-08T13:08:51;19.80;1.00
64654;DHT22;51065;48.884;12.598;2023-10-08T13:11:19;19.90;1.00
64654;DHT22;51065;48.884;12.598;2023-10-08T13:13:55;20.30;1.00
64654;DHT22;51065;48.884;12.598;2023-10-08T13:16:24;20.40;1.00
64654;DHT22;51065;48.884;12.598;2023-10-08T13:18:51;20.50;1.00
64654;DHT22;51065;48.884;12.598;2023-10-08T13:21:37;20.60;1.00
64654;DHT22;51065;48.884;12.598;2023-10-08T13:24:04;20.60;99.90
64654;DHT22;51065;48.884;12.598;2023-10-08T13:26:34;20.40;1.00
64654;DHT22;51065;48.884;12.598;2023-10-08T13:29:00;20.30;1.00
64654;DHT22;51065;48.884;12.598;2023-10-08T13:31:29;20.20;1.00
64654;DHT22;51065;48.884;12.598;2023-10-08T13:33:55;20.20;1.00
64654;DHT22;51065;48.884;12.598;2023-10-08T13:36:28;20.00;1.00
64654;DHT22;51065;48.884;12.598;2023-10-08T13:38:54;19.80;1.00
64654;DHT22;51065;48.884;12.598;2023-10-08T13:41:21;19.80;1.00
64654;DHT22;51065;48.884;12.598;2023-10-08T13:43:48;19.70;1.00
64654;DHT22;51065;48.884;12.598;2023-10-08T13:46:18;19.60;1.00
64654;DHT22;51065;48.884;12.598;2023-10-08T13:48:46;19.40;1.00
64654;DHT22;51065;48.884;12.598;2023-10-08T13:51:15;19.40;18.50
64654;DHT22;51065;48.884;12.598;2023-10-08T13:53:52;19.30;22.30
64654;DHT22;51065;48.884;12.598;2023-10-08T13:56:19;19.30;46.60
64654;DHT22;51065;48.884;12.598;2023-10-08T13:58:53;19.20;79.00
64654;DHT22;51065;48.884;12.598;2023-10-08T14:01:28;19.10;47.70
64654;DHT22;51065;48.884;12.598;2023-10-08T14:03:57;19.00;91.90
64654;DHT22;51065;48.884;12.598;2023-10-08T14:06:30;18.70;99.90
64654;DHT22;51065;48.884;12.598;2023-10-08T14:08:57;18.40;99.90
64654;DHT22;51065;48.884;12.598;2023-10-08T14:11:22;18.10;99.90
64654;DHT22;51065;48.884;12.598;2023-10-08T14:13:59;17.90;99.90
64654;DHT22;51065;48.884;12.598;2023-10-08T14:16:28;17.70;99.90
64654;DHT22;51065;48.884;12.598;2023-10-08T14:18:55;17.50;99.90
64654;DHT22;51065;48.884;12.598;2023-10-08T14:21:23;17.50;99.90
64654;DHT22;51065;48.884;12.598;2023-10-08T14:23:50;17.50;99.90
64654;DHT22;51065;48.884;12.598;2023-10-08T14:26:18;17.60;99.90
64654;DHT22;51065;48.884;12.598;2023-10-08T14:28:48;17.70;99.90
64654;DHT22;51065;48.884;12.598;2023-10-08T14:31:24;17.90;99.90
64654;DHT22;51065;48.884;12.598;2023-10-08T14:33:52;17.80;99.90
64654;DHT22;51065;48.884;12.598;2023-10-08T14:36:24;17.80;99.90
64654;DHT22;51065;48.884;12.598;2023-10-08T14:39:09;17.70;99.90
64654;DHT22;51065;48.884;12.598;2023-10-08T14:41:52;17.60;99.90
64654;DHT22;51065;48.884;12.598;2023-10-08T14:44:37;17.60;99.90
64654;DHT22;51065;48.884;12.598;2023-10-08T14:47:06;17.50;99.90
64654;DHT22;51065;48.884;12.598;2023-10-08T14:49:33;17.40;99.90
64654;DHT22;51065;48.884;12.598;2023-10-08T14:51:59;17.30;99.90
64654;DHT22;51065;48.884;12.598;2023-10-08T14:54:25;17.20;99.90
64654;DHT22;51065;48.884;12.598;2023-10-08T14:56:51;17.20;99.90
64654;DHT22;51065;48.884;12.598;2023-10-08T14:59:17;17.10;99.90
64654;DHT22;51065;48.884;12.598;2023-10-08T15:01:44;17.20;99.90
64654;DHT22;51065;48.884;12.598;2023-10-08T15:04:10;17.10;99.90
64654;DHT22;51065;48.884;12.598;2023-10-08T15:06:37;17.20;99.90
64654;DHT22;51065;48.884;12.598;2023-10-08T15:09:05;17.20;99.90
64654;DHT22;51065;48.884;12.598;2023-10-08T15:11:30;17.20;99.90
64654;DHT22;51065;48.884;12.598;2023-10-08T15:13:56;17.10;99.90
64654;DHT22;51065;48.884;12.598;2023-10-08T15:16:22;17.10;99.90
64654;DHT22;51065;48.884;12.598;2023-10-08T15:18:53;16.90;99.90
64654;DHT22;51065;48.884;12.598;2023-10-08T15:21:19;16.80;99.90
64654;DHT22;51065;48.884;12.598;2023-10-08T15:23:46;16.60;99.90
64654;DHT22;51065;48.884;12.598;2023-10-08T15:26:12;16.40;99.90
64654;DHT22;51065;48.884;12.598;2023-10-08T15:28:39;16.30;99.90
64654;DHT22;51065;48.884;12.598;2023-10-08T15:31:05;16.10;99.90
64654;DHT22;51065;48.884;12.598;2023-10-08T15:33:31;16.00;99.90
64654;DHT22;51065;48.884;12.598;2023-10-08T15:35:56;15.90;99.90
64654;DHT22;51065;48.884;12.598;2023-10-08T15:38:23;15.80;99.90
64654;DHT22;51065;48.884;12.598;2023-10-08T15:40:50;15.70;99.90
64654;DHT22;51065;48.884;12.598;2023-10-08T15:43:16;15.70;99.90
64654;DHT22;51065;48.884;12.598;2023-10-08T15:45:42;15.60;99.90